createdAt,value
2018-04-22T07:27:10.741Z,100500.16
2018-04-22T07:29:39.963Z,100497.95
2018-04-22T07:32:09.457Z,100496.44
2018-04-22T07:34:38.971Z,100498.12
2018-04-22T07:37:12.869Z,100506.59
2018-04-22T07:39:42.250Z,100500.94
2018-04-22T07:42:11.319Z,100492.57
2018-04-22T07:44:40.398Z,100499.47
2018-04-22T07:47:09.445Z,100505.59
2018-04-22T07:49:38.491Z,100496.91
2018-04-22T07:52:10.272Z,100503.71
2018-04-22T07:54:44.275Z,100494.39
2018-04-22T07:57:13.596Z,100499.22
2018-04-22T07:59:42.643Z,100500.22
2018-04-22T08:02:11.690Z,100504.83
2018-04-22T08:04:41.355Z,100494.02
2018-04-22T08:07:14.440Z,100490.48
2018-04-22T08:09:43.779Z,100492.44
2018-04-22T08:12:12.740Z,100494.34
2018-04-22T08:14:41.739Z,100486.09
2018-04-22T08:17:21.917Z,100488.56
2018-04-22T08:19:51.366Z,100485.08
2018-04-22T08:22:21.426Z,100487.66
2018-04-22T08:24:51.013Z,100485.45
2018-04-22T08:27:23.109Z,100481.94
2018-04-22T08:29:52.074Z,100485.27
2018-04-22T08:32:21.039Z,100487.78
2018-04-22T08:34:49.941Z,100487.22
2018-04-22T08:37:21.529Z,100477.64
2018-04-22T08:39:50.794Z,100488.66
2018-04-22T08:42:19.723Z,100484.37
2018-04-22T08:44:49.179Z,100475.72
2018-04-22T08:47:19.874Z,100477.36
2018-04-22T08:49:51.305Z,100472.23
2018-04-22T08:52:22.013Z,100470.47
2018-04-22T08:54:52.940Z,100463.04
2018-04-22T08:57:23.431Z,100469.28
2018-04-22T08:59:54.356Z,100465.50
2018-04-22T09:02:25.358Z,100456.39
2018-04-22T09:04:56.209Z,100460.50
2018-04-22T09:07:27.293Z,100451.70
2018-04-22T09:09:57.864Z,100455.10
2018-04-22T09:12:28.394Z,100455.80
2018-04-22T09:14:59.334Z,100451.38
2018-04-22T09:17:30.353Z,100446.74
2018-04-22T09:20:01.510Z,100438.98
2018-04-22T09:22:32.096Z,100440.81
2018-04-22T09:25:02.813Z,100437.37
2018-04-22T09:27:33.394Z,100443.78
2018-04-22T09:33:36.626Z,100433.78
2018-04-22T09:36:05.659Z,100428.20
2018-04-22T09:38:35.045Z,100428.77
2018-04-22T09:41:04.076Z,100427.36
2018-04-22T09:43:33.318Z,100432.54
2018-04-22T09:46:02.446Z,100439.00
2018-04-22T09:48:31.386Z,100431.39
2018-04-22T09:51:00.598Z,100431.62
2018-04-22T09:53:29.900Z,100424.88
2018-04-22T09:55:58.914Z,100426.84
2018-04-22T09:58:27.862Z,100422.63
2018-04-22T10:01:02.030Z,100419.06
2018-04-22T10:03:31.995Z,100418.30
2018-04-22T10:06:03.238Z,100413.40
2018-04-22T10:08:36.950Z,100411.89
2018-04-22T10:11:06.308Z,100407.53
2018-04-22T10:13:35.515Z,100406.06
2018-04-22T10:16:04.749Z,100397.78
2018-04-22T10:18:34.189Z,100405.16
2018-04-22T10:21:03.126Z,100400.73
2018-04-22T10:23:32.206Z,100393.86
2018-04-22T10:26:01.322Z,100396.98
2018-04-22T10:28:30.318Z,100387.61
2018-04-22T10:30:59.459Z,100392.00
2018-04-22T10:33:28.494Z,100388.48
2018-04-22T10:35:58.083Z,100391.27
2018-04-22T10:38:27.213Z,100388.66
2018-04-22T10:40:56.350Z,100389.98
2018-04-22T10:43:25.297Z,100382.81
2018-04-22T10:45:54.295Z,100380.63
2018-04-22T10:48:23.408Z,100378.05
2018-04-22T10:50:52.368Z,100372.39
2018-04-22T10:53:21.292Z,100368.56
2018-04-22T10:55:50.530Z,100352.29
2018-04-22T10:58:19.504Z,100356.33
2018-04-22T11:00:53.888Z,100353.26
2018-04-22T11:03:23.110Z,100351.28
2018-04-22T11:05:52.040Z,100348.92
2018-04-22T11:08:21.669Z,100341.27
2018-04-22T11:10:50.690Z,100339.66
2018-04-22T11:13:19.609Z,100338.58
2018-04-22T11:15:48.648Z,100333.11
2018-04-22T11:18:17.612Z,100333.38
2018-04-22T11:20:46.579Z,100335.73
2018-04-22T11:23:15.574Z,100336.66
2018-04-22T11:25:47.067Z,100334.30
2018-04-22T11:28:16.074Z,100336.20
2018-04-22T11:30:47.107Z,100331.48
2018-04-22T11:33:16.076Z,100335.48
2018-04-22T11:35:46.721Z,100330.05
2018-04-22T11:38:16.155Z,100321.95
2018-04-22T11:40:45.852Z,100318.43
2018-04-22T11:43:15.072Z,100313.50
2018-04-22T11:45:44.047Z,100314.63
2018-04-22T11:48:13.081Z,100319.96
2018-04-22T11:50:41.999Z,100320.56
2018-04-22T11:53:11.313Z,100322.75
2018-04-22T11:55:40.250Z,100310.86
2018-04-22T11:58:09.224Z,100319.51
2018-04-22T12:00:38.505Z,100314.95
2018-04-22T12:03:07.477Z,100317.55
2018-04-22T12:05:36.471Z,100313.38
2018-04-22T12:08:05.853Z,100306.67
2018-04-22T12:10:34.864Z,100300.33
2018-04-22T12:13:03.819Z,100304.55
2018-04-22T12:15:32.869Z,100299.38
2018-04-22T12:18:01.809Z,100292.27
2018-04-22T12:20:30.781Z,100294.64
2018-04-22T12:23:01.049Z,100287.77
2018-04-22T12:25:30.123Z,100287.56
2018-04-22T12:27:59.102Z,100285.44
2018-04-22T12:30:29.561Z,100285.85
2018-04-22T12:32:58.535Z,100277.59
2018-04-22T12:35:27.722Z,100279.84
2018-04-22T12:37:56.836Z,100276.06
2018-04-22T12:40:26.020Z,100274.81
2018-04-22T12:42:54.999Z,100270.05
2018-04-22T12:45:24.020Z,100268.23
2018-04-22T12:47:53.311Z,100266.14
2018-04-22T12:50:22.821Z,100260.09
2018-04-22T12:52:51.876Z,100260.84
2018-04-22T12:55:21.230Z,100259.19
2018-04-22T12:57:50.330Z,100251.42
2018-04-22T13:00:19.602Z,100246.73
